UUDD 230930Z 17007MPS 9999 OVC008 M01/M03 Q1020 R14R/550242 NOSIG
QNH:(hPa/inHg/mmHg)1020 / 30.12 / 765
QFE:(hPa/inHg/mmHg)998 / 29.47 / 749
Temperature-1
Dew Point-3
Visibility> 10000
Weather
Cloud CoverOVC (800);
Transition Altitude10000 ft.
Transition LevelFL110
SQUAWK